Murrells Inlet, South Carolina
Current Conditions -  °F | °C
As of 8:45 AM on Sunday 21 Dec 2014 (Local Time) from KMYR Reporting Station
Broken Clouds Broken Clouds  
Wind Chill: 37°   Ceiling: 6500
Heat Index: 43°   Visibility: 10mi
Dew Point: 36°   Wind: 10mph
Humidity: 76%   Direction: 30°NNE
Pressure: 30.27"   Gusts: NA
Location:  33.55°N, 79.04°W
Report Text: KMYR 211345Z 03009KT 10SM BKN065 06/02 A3027
Loading
Personal Weather Stations






























Interactive Weather Map New forecast layout! Learn more

10-Day Weather Forecast

Advertisements
Track Severe Weather on mobile